Time;durP1;ratioP1;P1;durP2;ratioP2;P2;SDS_P1;SDS_P2;PMS_P1;PMS_P2;Temp;Humidity;BMP_temperature;BMP_pressure;BME280_temperature;BME280_humidity;BME280_pressure;Samples;Min_cycle;Max_cycle;Signal;HPM_P1;HPM_P2
2023/12/18 00:00:21;;;;;;;6.27;3.60;;;5.60;99.90;;;;;;5178582;28;20201;-49
2023/12/18 00:02:52;;;;;;;4.50;4.10;;;5.60;99.90;;;;;;5185139;28;20798;-49
2023/12/18 00:05:23;;;;;;;5.67;4.17;;;5.60;99.90;;;;;;5182000;28;20786;-50
2023/12/18 00:07:53;;;;;;;5.27;4.37;;;5.60;99.90;;;;;;5184910;28;20212;-50
2023/12/18 00:10:24;;;;;;;3.87;3.33;;;5.60;99.90;;;;;;5184546;28;20320;-49
2023/12/18 00:12:54;;;;;;;7.23;3.27;;;5.60;99.90;;;;;;5197962;28;20197;-50
2023/12/18 00:15:27;;;;;;;3.77;3.50;;;5.60;99.90;;;;;;5191995;28;20181;-50
2023/12/18 00:17:57;;;;;;;4.03;3.60;;;5.50;99.90;;;;;;5194740;28;20620;-50
2023/12/18 00:20:28;;;;;;;3.43;3.13;;;5.60;99.90;;;;;;5164707;28;20467;-50
2023/12/18 00:22:59;;;;;;;3.23;3.13;;;5.60;99.90;;;;;;5185235;28;20637;-52
2023/12/18 00:25:29;;;;;;;3.60;3.30;;;5.50;99.90;;;;;;5181879;28;20267;-51
2023/12/18 00:28:00;;;;;;;3.83;3.53;;;5.50;99.90;;;;;;5198201;28;20176;-49
2023/12/18 00:30:30;;;;;;;3.90;3.60;;;5.60;99.90;;;;;;5182513;28;20280;-50
2023/12/18 00:33:02;;;;;;;4.33;3.20;;;5.60;99.90;;;;;;5187018;28;20215;-51
2023/12/18 00:35:32;;;;;;;3.67;3.30;;;5.60;99.90;;;;;;5178447;28;20251;-51
2023/12/18 00:38:03;;;;;;;4.03;3.63;;;5.70;99.90;;;;;;5179293;28;20439;-51
2023/12/18 00:40:33;;;;;;;4.60;3.23;;;5.80;99.90;;;;;;5188599;28;20212;-49
2023/12/18 00:43:04;;;;;;;4.20;3.57;;;5.90;99.90;;;;;;5184554;28;20752;-50
2023/12/18 00:45:35;;;;;;;3.37;3.17;;;5.90;99.90;;;;;;5183530;28;20576;-52
2023/12/18 00:48:06;;;;;;;3.50;3.27;;;5.90;99.90;;;;;;5188669;28;20703;-50
2023/12/18 00:50:36;;;;;;;3.37;3.17;;;5.90;99.90;;;;;;5182291;28;20200;-50
2023/12/18 00:53:07;;;;;;;3.83;3.53;;;6.00;99.90;;;;;;5187883;28;20550;-50
2023/12/18 00:55:38;;;;;;;3.87;3.33;;;6.10;99.90;;;;;;5195479;28;20284;-50
2023/12/18 00:58:09;;;;;;;3.50;3.13;;;6.10;99.90;;;;;;5184199;28;20529;-50
2023/12/18 01:00:39;;;;;;;4.17;3.70;;;6.10;99.90;;;;;;5182293;28;20181;-50
2023/12/18 01:03:10;;;;;;;3.30;3.00;;;6.20;99.90;;;;;;5182018;28;20435;-50
2023/12/18 01:05:41;;;;;;;2.70;2.50;;;6.20;99.90;;;;;;5208031;28;20271;-49
2023/12/18 01:08:12;;;;;;;3.57;2.70;;;6.40;99.90;;;;;;5181132;28;20189;-51
2023/12/18 01:10:43;;;;;;;3.70;3.40;;;6.40;99.90;;;;;;5183069;28;20192;-50
2023/12/18 01:13:14;;;;;;;5.27;3.90;;;6.40;99.90;;;;;;5180524;28;20770;-50
2023/12/18 01:15:44;;;;;;;3.20;3.00;;;6.50;99.90;;;;;;5178825;28;20200;-50
2023/12/18 01:18:15;;;;;;;3.70;3.37;;;6.60;99.90;;;;;;5181710;28;20192;-49
2023/12/18 01:20:45;;;;;;;4.00;3.67;;;6.60;99.90;;;;;;5178053;28;20196;-51
2023/12/18 01:23:16;;;;;;;4.80;3.17;;;6.60;99.90;;;;;;5182287;28;20191;-50
2023/12/18 01:25:47;;;;;;;3.73;3.40;;;6.60;99.90;;;;;;5196629;28;20783;-50
2023/12/18 01:28:17;;;;;;;2.57;2.47;;;6.60;99.90;;;;;;5179139;28;20566;-50
2023/12/18 01:30:48;;;;;;;5.53;3.70;;;6.70;99.90;;;;;;5181860;28;20333;-50
2023/12/18 01:33:18;;;;;;;3.90;3.50;;;6.50;99.90;;;;;;5182859;28;20185;-49
2023/12/18 01:35:49;;;;;;;3.60;3.37;;;6.40;99.90;;;;;;5179438;28;20351;-49
2023/12/18 01:38:19;;;;;;;5.30;3.97;;;6.50;99.90;;;;;;5195853;28;20193;-51
2023/12/18 01:40:50;;;;;;;4.73;3.17;;;6.60;99.90;;;;;;5177909;28;20188;-50
2023/12/18 01:43:27;;;;;;;3.20;3.10;;;6.70;99.90;;;;;;5182177;28;20188;-50
2023/12/18 01:45:59;;;;;;;3.90;3.70;;;6.80;99.90;;;;;;5176222;28;20184;-50
2023/12/18 01:48:31;;;;;;;3.70;3.40;;;6.80;99.90;;;;;;5184180;28;20481;-50
2023/12/18 01:51:03;;;;;;;4.20;3.47;;;6.80;99.90;;;;;;5189155;28;20954;-50
2023/12/18 01:53:42;;;;;;;3.73;3.47;;;6.90;99.90;;;;;;5183420;28;20473;-50
2023/12/18 01:56:14;;;;;;;4.07;3.80;;;7.00;99.90;;;;;;5181240;28;20468;-51
2023/12/18 01:58:45;;;;;;;3.43;3.20;;;7.00;99.90;;;;;;5181555;28;20470;-49
2023/12/18 02:01:15;;;;;;;3.93;3.63;;;7.10;99.90;;;;;;5193422;28;20934;-50
2023/12/18 02:03:46;;;;;;;2.80;2.60;;;7.10;99.90;;;;;;5188697;28;20595;-51
2023/12/18 02:06:18;;;;;;;3.60;3.30;;;7.20;99.90;;;;;;5180795;28;20386;-50
2023/12/18 02:08:49;;;;;;;6.93;3.40;;;7.10;99.90;;;;;;5163514;28;20515;-50
2023/12/18 02:11:20;;;;;;;5.47;4.60;;;7.10;99.90;;;;;;5185176;28;20477;-50
2023/12/18 02:13:51;;;;;;;4.20;3.80;;;7.20;99.90;;;;;;5180030;28;20203;-50
2023/12/18 02:16:22;;;;;;;3.97;3.60;;;7.20;99.90;;;;;;5199013;28;20270;-49
2023/12/18 02:18:54;;;;;;;4.90;3.60;;;7.30;99.90;;;;;;5179079;28;20246;-49
2023/12/18 02:21:24;;;;;;;5.67;4.57;;;7.20;99.90;;;;;;5182746;28;20699;-49
2023/12/18 02:23:55;;;;;;;4.80;3.80;;;7.20;99.90;;;;;;5192927;28;20443;-50
2023/12/18 02:26:26;;;;;;;7.90;4.10;;;7.30;99.90;;;;;;5187858;28;20619;-50
2023/12/18 02:28:56;;;;;;;6.00;5.20;;;7.30;99.90;;;;;;5182659;28;20240;-51
2023/12/18 02:31:27;;;;;;;4.53;3.90;;;7.40;99.90;;;;;;5179264;28;20207;-50
2023/12/18 02:33:57;;;;;;;4.37;4.07;;;7.40;99.90;;;;;;5175333;28;20268;-50
2023/12/18 02:36:29;;;;;;;7.17;4.33;;;7.30;99.90;;;;;;5183481;28;20301;-51
2023/12/18 02:38:59;;;;;;;5.27;4.77;;;7.40;99.90;;;;;;5180948;28;20211;-51
2023/12/18 02:41:30;;;;;;;6.00;4.80;;;7.40;99.90;;;;;;5188077;28;20446;-49
2023/12/18 02:44:00;;;;;;;6.57;5.57;;;7.40;99.90;;;;;;5179487;28;20191;-50
2023/12/18 02:46:31;;;;;;;9.10;5.70;;;7.50;99.90;;;;;;5177423;28;20180;-50
2023/12/18 02:49:02;;;;;;;8.43;5.93;;;7.50;99.90;;;;;;5182129;28;20705;-50
2023/12/18 02:51:33;;;;;;;6.73;5.67;;;7.40;99.90;;;;;;5177660;28;20188;-50
2023/12/18 02:54:04;;;;;;;9.90;5.87;;;7.40;99.90;;;;;;5179721;28;20978;-51
2023/12/18 02:56:34;;;;;;;11.87;6.37;;;7.50;99.90;;;;;;5193804;28;20335;-50
2023/12/18 02:59:05;;;;;;;13.27;6.50;;;7.50;99.90;;;;;;5194354;28;20294;-50
2023/12/18 03:01:35;;;;;;;7.30;6.40;;;7.50;99.90;;;;;;5177194;28;20660;-49
2023/12/18 03:04:06;;;;;;;9.47;7.17;;;7.50;99.90;;;;;;5179920;28;20180;-49
2023/12/18 03:06:36;;;;;;;10.03;7.30;;;7.50;99.90;;;;;;5182684;28;20191;-50
2023/12/18 03:09:07;;;;;;;11.30;8.07;;;7.40;99.90;;;;;;5182426;28;20220;-51
2023/12/18 03:11:42;;;;;;;11.37;6.90;;;7.50;99.90;;;;;;5184027;28;20196;-51
2023/12/18 03:14:13;;;;;;;8.73;7.40;;;7.60;99.90;;;;;;5199327;28;20187;-51
2023/12/18 03:16:44;;;;;;;12.73;8.60;;;7.60;99.90;;;;;;5184851;28;20957;-49
2023/12/18 03:19:15;;;;;;;10.43;7.80;;;7.60;99.90;;;;;;5195317;28;20208;-50
2023/12/18 03:21:46;;;;;;;9.83;7.70;;;7.60;99.90;;;;;;5172729;28;20206;-52
2023/12/18 03:24:17;;;;;;;9.53;8.60;;;7.50;99.90;;;;;;5182691;28;20868;-50
2023/12/18 03:26:48;;;;;;;12.17;8.90;;;7.50;99.90;;;;;;5202748;28;20970;-49
2023/12/18 03:29:18;;;;;;;11.13;8.13;;;7.60;99.90;;;;;;5186308;28;20302;-50
2023/12/18 03:31:49;;;;;;;14.10;8.67;;;7.60;99.90;;;;;;5183241;28;20192;-52
2023/12/18 03:34:19;;;;;;;12.73;9.30;;;7.50;99.90;;;;;;5185928;28;20554;-51
2023/12/18 03:36:50;;;;;;;14.60;9.07;;;7.50;99.90;;;;;;5183677;28;20216;-51
2023/12/18 03:39:20;;;;;;;16.60;10.00;;;7.60;99.90;;;;;;5201146;28;20196;-49
2023/12/18 03:41:51;;;;;;;19.80;9.90;;;7.50;99.90;;;;;;5181958;28;20211;-49
2023/12/18 03:44:22;;;;;;;16.53;9.40;;;7.60;99.90;;;;;;5198438;28;20192;-52
2023/12/18 03:46:53;;;;;;;17.17;8.07;;;7.60;99.90;;;;;;5183059;28;20303;-49
2023/12/18 03:49:23;;;;;;;15.57;9.33;;;7.50;99.90;;;;;;5191485;28;20218;-49
2023/12/18 03:51:54;;;;;;;17.70;9.57;;;7.50;99.90;;;;;;5184628;28;20192;-51
2023/12/18 03:54:24;;;;;;;16.50;9.37;;;7.50;99.90;;;;;;5188800;28;20192;-51
2023/12/18 03:56:55;;;;;;;14.67;8.77;;;7.50;99.90;;;;;;5189072;28;20325;-50
2023/12/18 03:59:25;;;;;;;16.43;10.00;;;7.50;99.90;;;;;;5183694;28;20575;-52
2023/12/18 04:01:56;;;;;;;13.43;9.50;;;7.50;99.90;;;;;;5194549;28;20234;-50
2023/12/18 04:04:27;;;;;;;12.27;10.20;;;7.50;99.90;;;;;;5181308;28;20628;-49
2023/12/18 04:06:57;;;;;;;17.07;10.10;;;7.50;99.90;;;;;;5202404;28;20203;-50
2023/12/18 04:09:28;;;;;;;14.50;9.47;;;7.50;99.90;;;;;;5229281;22;20623;-52
2023/12/18 04:11:59;;;;;;;16.03;10.23;;;7.50;99.90;;;;;;5207653;28;20540;-52
2023/12/18 04:14:30;;;;;;;12.90;9.60;;;7.50;99.90;;;;;;5202361;28;20439;-52
2023/12/18 04:17:01;;;;;;;14.33;9.03;;;7.50;99.90;;;;;;5203182;28;20963;-54
2023/12/18 04:19:32;;;;;;;11.10;8.40;;;7.50;99.90;;;;;;5205682;28;20899;-52
2023/12/18 04:22:03;;;;;;;14.30;9.83;;;7.40;99.90;;;;;;5206281;28;20666;-52
2023/12/18 04:24:34;;;;;;;13.50;9.93;;;7.40;99.90;;;;;;5203645;28;20887;-53
2023/12/18 04:27:05;;;;;;;16.10;9.53;;;7.40;99.90;;;;;;5206895;28;20919;-50
2023/12/18 04:29:37;;;;;;;11.13;9.90;;;7.50;99.90;;;;;;5206258;28;20573;-52
2023/12/18 04:32:08;;;;;;;15.20;9.67;;;7.40;99.90;;;;;;5202927;28;20180;-52
2023/12/18 04:34:42;;;;;;;19.40;10.63;;;7.50;99.90;;;;;;5205581;28;20442;-53
2023/12/18 04:37:12;;;;;;;12.90;9.00;;;7.50;99.90;;;;;;5204965;28;20218;-54
2023/12/18 04:39:43;;;;;;;15.07;9.83;;;7.50;99.90;;;;;;5201165;28;20451;-52
2023/12/18 04:42:14;;;;;;;16.00;11.10;;;7.50;99.90;;;;;;5187129;28;20176;-52
2023/12/18 04:44:48;;;;;;;15.80;10.87;;;7.40;99.90;;;;;;5203815;28;20183;-53
2023/12/18 04:47:19;;;;;;;26.60;10.70;;;7.30;99.90;;;;;;5205175;28;20184;-53
2023/12/18 04:49:50;;;;;;;11.47;9.10;;;7.40;99.90;;;;;;5205631;28;20450;-52
2023/12/18 04:52:21;;;;;;;14.77;9.60;;;7.30;99.90;;;;;;5203965;28;20183;-52
2023/12/18 04:54:53;;;;;;;14.17;11.20;;;7.30;99.90;;;;;;5204384;28;20270;-52
2023/12/18 04:57:24;;;;;;;17.70;11.23;;;7.30;99.90;;;;;;5201476;28;20796;-51
2023/12/18 04:59:55;;;;;;;17.10;10.63;;;7.30;99.90;;;;;;5204445;28;20461;-52
2023/12/18 05:02:25;;;;;;;15.17;10.60;;;7.30;99.90;;;;;;5200716;28;20176;-51
2023/12/18 05:04:56;;;;;;;17.23;11.13;;;7.40;99.90;;;;;;5204812;28;20422;-53
2023/12/18 05:07:27;;;;;;;14.30;9.90;;;7.50;99.90;;;;;;5198155;28;20196;-51
2023/12/18 05:10:02;;;;;;;14.60;10.27;;;7.40;99.90;;;;;;5204424;28;20524;-51
2023/12/18 05:12:32;;;;;;;13.50;10.50;;;7.30;99.90;;;;;;5198775;28;20237;-52
2023/12/18 05:15:04;;;;;;;21.07;10.13;;;7.20;99.90;;;;;;5201941;28;20946;-51
2023/12/18 05:17:34;;;;;;;17.20;10.87;;;7.30;99.90;;;;;;5201725;28;20212;-52
2023/12/18 05:20:08;;;;;;;13.40;10.17;;;7.30;99.90;;;;;;5204647;28;20457;-52
2023/12/18 05:22:42;;;;;;;18.20;10.10;;;7.30;99.90;;;;;;5200678;28;20183;-54
2023/12/18 05:25:13;;;;;;;17.70;10.90;;;7.30;99.90;;;;;;5185925;28;20469;-55
2023/12/18 05:27:46;;;;;;;16.10;10.77;;;7.30;99.90;;;;;;5204802;28;20462;-52
2023/12/18 05:30:17;;;;;;;14.47;10.33;;;7.30;99.90;;;;;;5205339;28;20516;-52
2023/12/18 05:32:49;;;;;;;21.00;11.20;;;7.30;99.90;;;;;;5200820;28;21263;-51
2023/12/18 05:35:20;;;;;;;16.87;10.60;;;7.40;99.90;;;;;;5201746;28;20435;-52
2023/12/18 05:37:50;;;;;;;17.33;9.90;;;7.30;99.90;;;;;;5202500;28;20465;-51
2023/12/18 05:40:27;;;;;;;14.70;10.73;;;7.30;99.90;;;;;;5202608;28;20462;-52
2023/12/18 05:42:58;;;;;;;24.30;11.70;;;7.30;99.90;;;;;;5202247;28;20664;-53
2023/12/18 05:45:29;;;;;;;17.73;10.40;;;7.40;99.90;;;;;;5203551;28;20445;-52
2023/12/18 05:48:03;;;;;;;26.10;11.03;;;7.30;99.90;;;;;;5202658;28;20223;-53
2023/12/18 05:50:34;;;;;;;15.00;10.20;;;7.30;99.90;;;;;;5195542;28;20206;-51
2023/12/18 05:53:05;;;;;;;19.00;10.07;;;7.20;99.90;;;;;;5203244;28;20502;-52
2023/12/18 05:55:36;;;;;;;14.70;10.50;;;7.20;99.90;;;;;;5201495;28;20209;-53
2023/12/18 05:58:07;;;;;;;17.03;8.67;;;7.30;99.90;;;;;;5203742;28;21004;-53
2023/12/18 06:00:38;;;;;;;12.27;9.10;;;7.30;99.90;;;;;;5198303;28;20210;-52
2023/12/18 06:03:09;;;;;;;11.73;9.13;;;7.30;99.90;;;;;;5201586;28;20246;-52
2023/12/18 06:05:40;;;;;;;19.83;10.37;;;7.20;99.90;;;;;;5202579;28;20501;-51
2023/12/18 06:08:10;;;;;;;24.20;10.60;;;7.30;99.90;;;;;;5203037;28;20513;-52
2023/12/18 06:10:41;;;;;;;25.43;10.50;;;7.30;99.90;;;;;;5202301;28;20230;-53
2023/12/18 06:13:12;;;;;;;21.07;10.10;;;7.40;99.90;;;;;;5202332;28;20287;-53
2023/12/18 06:15:45;;;;;;;15.07;10.20;;;7.40;99.90;;;;;;5202960;28;20179;-51
2023/12/18 06:18:17;;;;;;;18.03;9.50;;;7.40;99.90;;;;;;5200411;28;20191;-54
2023/12/18 06:20:48;;;;;;;12.10;8.80;;;7.30;99.90;;;;;;5201698;28;20915;-52
2023/12/18 06:23:19;;;;;;;13.07;9.73;;;7.30;99.90;;;;;;5204437;28;20572;-53
2023/12/18 06:25:49;;;;;;;13.30;9.17;;;7.40;99.90;;;;;;5200825;28;20946;-52
2023/12/18 06:28:20;;;;;;;11.80;9.10;;;7.40;99.90;;;;;;5203126;28;20176;-52
2023/12/18 06:30:51;;;;;;;16.83;10.70;;;7.40;99.90;;;;;;5206342;28;20184;-53
2023/12/18 06:33:22;;;;;;;18.20;10.00;;;7.30;99.90;;;;;;5206536;28;20430;-53
2023/12/18 06:35:53;;;;;;;22.47;10.10;;;7.30;99.90;;;;;;5204645;28;20176;-51
2023/12/18 06:38:24;;;;;;;19.20;10.60;;;7.30;99.90;;;;;;5201739;28;20903;-53
2023/12/18 06:40:55;;;;;;;16.90;10.10;;;7.40;99.90;;;;;;5198419;28;20433;-52
2023/12/18 06:43:26;;;;;;;20.10;9.77;;;7.40;99.90;;;;;;5207666;28;20652;-52
2023/12/18 06:45:59;;;;;;;13.00;8.90;;;7.40;99.90;;;;;;5207982;28;20175;-51
2023/12/18 06:48:30;;;;;;;14.47;9.77;;;7.30;99.90;;;;;;5208318;28;20803;-51
2023/12/18 06:51:01;;;;;;;26.10;11.53;;;7.40;99.90;;;;;;5207678;28;20900;-54
2023/12/18 06:53:32;;;;;;;20.13;10.27;;;7.30;99.90;;;;;;5203941;28;20453;-52
2023/12/18 06:56:05;;;;;;;17.53;10.57;;;7.20;99.90;;;;;;5203512;28;20757;-52
2023/12/18 06:58:36;;;;;;;14.30;9.90;;;7.30;99.90;;;;;;5202096;28;20234;-53
2023/12/18 07:01:07;;;;;;;18.73;10.27;;;7.30;99.90;;;;;;5206236;28;20942;-53
2023/12/18 07:03:38;;;;;;;19.50;9.60;;;7.40;99.90;;;;;;5208073;28;20434;-51
2023/12/18 07:06:09;;;;;;;16.33;9.50;;;7.40;99.90;;;;;;5204154;28;20441;-52
2023/12/18 07:08:40;;;;;;;17.90;9.67;;;7.40;99.90;;;;;;5203647;28;20346;-52
2023/12/18 07:11:12;;;;;;;15.40;10.37;;;7.30;99.90;;;;;;5203650;28;21120;-53
2023/12/18 07:13:43;;;;;;;17.33;10.10;;;7.40;99.90;;;;;;5202393;28;20978;-54
2023/12/18 07:16:23;;;;;;;17.77;9.40;;;7.40;99.90;;;;;;5197228;28;20474;-51
2023/12/18 07:19:01;;;;;;;15.40;10.87;;;7.30;99.90;;;;;;5199557;28;20249;-54
2023/12/18 07:21:32;;;;;;;17.00;9.50;;;7.40;99.90;;;;;;5199250;28;20415;-53
2023/12/18 07:24:03;;;;;;;15.03;9.60;;;7.30;99.90;;;;;;5203891;28;20458;-53
2023/12/18 07:26:37;;;;;;;20.57;11.20;;;7.30;99.90;;;;;;5200885;28;20441;-53
2023/12/18 07:29:08;;;;;;;14.43;9.80;;;7.30;99.90;;;;;;5201721;28;21055;-52
2023/12/18 07:31:41;;;;;;;15.43;10.20;;;7.30;99.90;;;;;;5202410;28;20461;-54
2023/12/18 07:34:12;;;;;;;12.87;10.40;;;7.30;99.90;;;;;;5199040;28;20440;-53
2023/12/18 07:36:46;;;;;;;16.37;10.30;;;7.20;99.90;;;;;;5196177;28;20923;-54
2023/12/18 07:39:16;;;;;;;15.00;10.40;;;7.30;99.90;;;;;;5205176;28;20203;-54
2023/12/18 07:41:47;;;;;;;18.57;9.97;;;7.30;99.90;;;;;;5203267;28;21054;-52
2023/12/18 07:44:21;;;;;;;26.90;10.93;;;7.40;99.90;;;;;;5199033;28;20716;-54
2023/12/18 07:46:52;;;;;;;14.57;10.10;;;7.30;99.90;;;;;;5200729;28;20247;-52
2023/12/18 07:49:22;;;;;;;27.50;10.83;;;7.40;99.90;;;;;;5202521;28;20514;-52
2023/12/18 07:51:53;;;;;;;12.90;9.80;;;7.50;99.90;;;;;;5206774;28;20438;-53
2023/12/18 07:54:24;;;;;;;25.67;10.97;;;7.40;99.90;;;;;;5202816;28;20635;-55
2023/12/18 07:56:55;;;;;;;13.23;10.30;;;7.40;99.90;;;;;;5199463;28;20208;-55
2023/12/18 07:59:27;;;;;;;18.77;10.10;;;7.40;99.90;;;;;;5206532;28;20207;-53
2023/12/18 08:01:58;;;;;;;16.27;11.50;;;7.40;99.90;;;;;;5190271;28;20474;-54
2023/12/18 08:04:29;;;;;;;18.47;9.97;;;7.50;99.90;;;;;;5191371;28;21018;-55
2023/12/18 08:07:00;;;;;;;14.73;9.73;;;7.60;99.90;;;;;;5190282;28;25571;-54
2023/12/18 08:09:31;;;;;;;22.20;9.87;;;7.60;99.90;;;;;;5199014;28;20637;-54
2023/12/18 08:12:02;;;;;;;14.80;8.93;;;7.70;99.90;;;;;;5207132;28;20647;-51
2023/12/18 08:14:36;;;;;;;14.03;9.67;;;7.70;99.90;;;;;;5208657;28;20461;-54
2023/12/18 08:17:07;;;;;;;12.83;8.53;;;7.70;99.90;;;;;;5187546;28;20462;-53
2023/12/18 08:19:38;;;;;;;11.63;8.47;;;7.90;99.90;;;;;;5207390;28;20862;-53
2023/12/18 08:22:08;;;;;;;13.60;8.93;;;8.00;99.90;;;;;;5207179;28;20549;-53
2023/12/18 08:24:39;;;;;;;13.70;8.53;;;8.10;99.90;;;;;;5206548;28;20416;-53
2023/12/18 08:27:10;;;;;;;15.27;8.50;;;8.20;99.90;;;;;;5210238;28;20208;-54
2023/12/18 08:29:41;;;;;;;13.70;8.43;;;8.30;99.90;;;;;;5205346;28;20450;-53
2023/12/18 08:32:12;;;;;;;8.73;7.63;;;8.30;99.90;;;;;;5202675;28;20439;-53
2023/12/18 08:34:43;;;;;;;20.93;9.00;;;8.30;99.90;;;;;;5199464;28;20912;-52
2023/12/18 08:37:14;;;;;;;17.63;10.07;;;8.10;99.90;;;;;;5203767;28;20719;-53
2023/12/18 08:39:45;;;;;;;15.23;7.70;;;8.20;99.90;;;;;;5201859;28;20754;-54
2023/12/18 08:42:16;;;;;;;14.70;9.20;;;8.10;99.90;;;;;;5204728;28;20426;-54
2023/12/18 08:44:48;;;;;;;13.97;8.00;;;8.00;99.90;;;;;;5202785;28;21630;-53
2023/12/18 08:47:18;;;;;;;13.00;8.43;;;8.00;99.90;;;;;;5203702;28;20187;-54
2023/12/18 08:49:52;;;;;;;12.97;8.20;;;8.00;99.90;;;;;;5204865;28;20446;-52
2023/12/18 08:52:23;;;;;;;21.07;9.43;;;7.90;99.90;;;;;;5198681;28;20549;-52
2023/12/18 08:54:54;;;;;;;13.00;7.63;;;7.90;99.90;;;;;;5198230;28;20445;-52
2023/12/18 08:57:24;;;;;;;10.53;8.90;;;8.00;99.90;;;;;;5203449;28;20203;-53
2023/12/18 08:59:56;;;;;;;19.90;9.67;;;8.10;99.90;;;;;;5204109;28;20465;-53
2023/12/18 09:02:27;;;;;;;11.50;8.53;;;8.00;99.90;;;;;;5201858;28;20190;-53
2023/12/18 09:04:58;;;;;;;10.63;8.40;;;7.90;99.90;;;;;;5209317;28;20435;-52
2023/12/18 09:07:28;;;;;;;13.97;8.83;;;7.90;99.90;;;;;;5205151;28;20199;-53
2023/12/18 09:09:59;;;;;;;10.13;7.40;;;7.90;99.90;;;;;;5203314;28;20222;-52
2023/12/18 09:12:30;;;;;;;13.20;8.97;;;7.80;99.90;;;;;;5202007;28;20780;-53
2023/12/18 09:15:01;;;;;;;13.93;9.10;;;7.80;99.90;;;;;;5200151;28;20278;-54
2023/12/18 09:17:31;;;;;;;12.20;7.83;;;7.70;99.90;;;;;;5198978;28;20216;-52
2023/12/18 09:20:02;;;;;;;21.27;9.07;;;7.70;99.90;;;;;;5206683;28;20199;-53
2023/12/18 09:22:34;;;;;;;12.03;7.93;;;7.90;99.90;;;;;;5200749;28;20184;-53
2023/12/18 09:25:08;;;;;;;9.63;7.70;;;7.80;99.90;;;;;;5202902;28;20435;-52
2023/12/18 09:27:42;;;;;;;11.53;8.13;;;7.80;99.90;;;;;;5202408;28;20903;-53
2023/12/18 09:30:14;;;;;;;17.10;7.93;;;7.80;99.90;;;;;;5203379;28;20457;-54
2023/12/18 09:32:45;;;;;;;12.20;9.23;;;7.80;99.90;;;;;;5201926;28;20438;-53
2023/12/18 09:35:18;;;;;;;17.20;9.07;;;7.80;99.90;;;;;;5202855;28;20448;-53
2023/12/18 09:37:49;;;;;;;11.43;7.93;;;7.90;99.90;;;;;;5202234;28;20210;-52
2023/12/18 09:40:20;;;;;;;13.10;8.83;;;8.00;99.90;;;;;;5200453;28;20955;-51
2023/12/18 09:42:54;;;;;;;14.30;8.70;;;8.10;99.90;;;;;;5201775;28;20466;-52
2023/12/18 09:45:25;;;;;;;15.33;8.60;;;8.20;99.90;;;;;;5202841;28;20208;-53
2023/12/18 09:47:56;;;;;;;11.03;7.50;;;8.20;99.90;;;;;;5202610;28;20476;-53
2023/12/18 09:50:27;;;;;;;14.80;8.33;;;8.10;99.90;;;;;;5201748;28;20489;-54
2023/12/18 09:53:10;;;;;;;11.73;8.30;;;8.10;99.90;;;;;;5200334;28;20207;-51
2023/12/18 09:55:41;;;;;;;9.20;8.20;;;8.10;99.90;;;;;;5200999;28;20449;-53
2023/12/18 09:58:15;;;;;;;9.27;7.73;;;7.90;99.90;;;;;;5200263;28;20474;-51
2023/12/18 10:00:47;;;;;;;18.70;9.10;;;7.90;99.90;;;;;;5183697;28;20863;-54
2023/12/18 10:03:18;;;;;;;19.33;8.37;;;7.90;99.90;;;;;;5201058;28;20426;-53
2023/12/18 10:05:49;;;;;;;13.80;9.00;;;8.00;99.90;;;;;;5200190;28;20958;-53
2023/12/18 10:08:21;;;;;;;20.63;8.87;;;7.90;99.90;;;;;;5200385;28;20557;-54
2023/12/18 10:10:52;;;;;;;18.03;8.37;;;7.90;99.90;;;;;;5227062;22;20581;-51
2023/12/18 10:13:25;;;;;;;11.80;8.60;;;8.00;99.90;;;;;;5202664;28;20445;-51
2023/12/18 10:15:56;;;;;;;21.27;11.90;;;8.00;99.90;;;;;;5219027;28;20416;-51
2023/12/18 10:18:27;;;;;;;10.50;8.10;;;8.00;99.90;;;;;;5221040;28;20420;-50
2023/12/18 10:20:58;;;;;;;11.97;8.83;;;8.20;99.90;;;;;;5218310;28;20465;-52
2023/12/18 10:23:35;;;;;;;15.70;9.47;;;8.10;99.90;;;;;;5218349;28;20187;-52
2023/12/18 10:26:05;;;;;;;15.20;8.47;;;8.20;99.90;;;;;;5217607;28;20392;-53
2023/12/18 10:28:36;;;;;;;13.23;7.70;;;8.20;99.90;;;;;;5217417;28;20522;-51
2023/12/18 10:31:09;;;;;;;10.67;7.67;;;8.30;99.90;;;;;;5213297;28;20191;-50
2023/12/18 10:33:40;;;;;;;12.97;8.40;;;8.30;99.90;;;;;;5216484;28;20624;-51
2023/12/18 10:36:11;;;;;;;18.43;8.37;;;8.30;99.90;;;;;;5216184;28;20444;-50
2023/12/18 10:38:47;;;;;;;20.43;8.70;;;8.30;99.90;;;;;;5219089;28;20456;-51
2023/12/18 10:41:22;;;;;;;15.57;9.13;;;8.30;99.90;;;;;;5218027;28;20437;-50
2023/12/18 10:43:55;;;;;;;11.70;8.57;;;8.40;99.90;;;;;;5201257;28;21009;-51
2023/12/18 10:46:27;;;;;;;14.40;9.17;;;8.30;99.90;;;;;;5218258;28;20437;-53
2023/12/18 10:48:59;;;;;;;14.17;9.97;;;8.20;99.90;;;;;;5217416;28;20461;-50
2023/12/18 10:51:33;;;;;;;13.33;8.73;;;8.40;99.90;;;;;;5221512;28;20996;-49
2023/12/18 10:54:06;;;;;;;14.43;9.40;;;8.40;99.90;;;;;;5220252;28;20441;-52
2023/12/18 10:56:39;;;;;;;14.77;9.23;;;8.20;99.90;;;;;;5218624;28;20465;-51
2023/12/18 10:59:13;;;;;;;12.57;9.03;;;8.20;99.90;;;;;;5215742;28;20507;-50
2023/12/18 11:01:45;;;;;;;13.10;9.30;;;8.20;99.90;;;;;;5213708;28;20469;-52
2023/12/18 11:04:18;;;;;;;13.20;10.00;;;8.30;99.90;;;;;;5228631;28;20442;-49
2023/12/18 11:06:49;;;;;;;13.20;9.93;;;8.50;99.90;;;;;;5220875;28;20540;-51
2023/12/18 11:09:20;;;;;;;21.67;10.27;;;8.40;99.90;;;;;;5216521;28;20461;-50
2023/12/18 11:11:51;;;;;;;14.93;9.53;;;8.40;99.90;;;;;;5219125;28;20452;-50
2023/12/18 11:14:50;;;;;;;14.97;9.10;;;8.30;99.90;;;;;;5218123;28;20623;-50
2023/12/18 11:17:39;;;;;;;13.63;8.90;;;8.30;99.90;;;;;;5217527;28;20511;-49
2023/12/18 11:20:34;;;;;;;18.70;9.43;;;8.20;99.90;;;;;;5220162;28;20457;-49
2023/12/18 11:23:05;;;;;;;16.17;10.00;;;8.20;99.90;;;;;;5219306;28;20523;-50
2023/12/18 11:25:43;;;;;;;12.87;9.10;;;8.20;99.90;;;;;;5220770;28;20508;-51
2023/12/18 11:28:15;;;;;;;12.83;9.53;;;8.20;99.90;;;;;;5220972;28;20198;-52
2023/12/18 11:30:45;;;;;;;14.77;9.07;;;8.20;99.90;;;;;;5224169;28;20441;-52
2023/12/18 11:33:16;;;;;;;9.47;8.20;;;8.20;99.90;;;;;;5220987;28;20466;-52
2023/12/18 11:35:50;;;;;;;14.13;9.03;;;8.20;99.90;;;;;;5222259;28;20191;-52
2023/12/18 11:38:22;;;;;;;15.40;9.23;;;8.20;99.90;;;;;;5222693;28;20216;-52
2023/12/18 11:40:53;;;;;;;16.27;10.60;;;8.20;99.90;;;;;;5220478;28;20454;-50
2023/12/18 11:43:37;;;;;;;14.57;9.97;;;8.10;99.90;;;;;;5221782;28;20500;-49
2023/12/18 11:46:11;;;;;;;13.03;9.13;;;8.20;99.90;;;;;;5221115;28;20432;-53
2023/12/18 11:48:42;;;;;;;13.27;8.77;;;8.20;99.90;;;;;;5203309;28;20432;-50
2023/12/18 11:51:13;;;;;;;15.10;9.47;;;8.40;99.90;;;;;;5221569;28;20491;-52
2023/12/18 11:53:44;;;;;;;13.90;9.13;;;8.40;99.90;;;;;;5224537;28;20472;-51
2023/12/18 11:56:16;;;;;;;14.30;9.77;;;8.50;99.90;;;;;;5221282;28;20639;-51
2023/12/18 11:58:48;;;;;;;20.37;8.03;;;8.60;99.90;;;;;;5220498;28;20191;-50
2023/12/18 12:01:20;;;;;;;15.60;9.07;;;8.70;99.90;;;;;;5223373;28;20504;-51
2023/12/18 12:03:53;;;;;;;17.90;9.70;;;8.70;99.90;;;;;;5225894;28;20457;-50
2023/12/18 12:06:24;;;;;;;20.03;10.70;;;8.80;99.90;;;;;;5221088;28;20434;-51
2023/12/18 12:08:55;;;;;;;17.07;10.07;;;8.90;99.90;;;;;;5210600;28;20437;-52
2023/12/18 12:11:26;;;;;;;16.40;10.00;;;8.90;99.90;;;;;;5211026;28;20452;-49
2023/12/18 12:13:56;;;;;;;15.80;9.83;;;9.00;99.90;;;;;;5205063;28;20188;-50
2023/12/18 12:16:27;;;;;;;19.93;10.30;;;9.00;99.90;;;;;;5217079;28;20295;-50
2023/12/18 12:18:58;;;;;;;21.50;10.07;;;9.00;99.90;;;;;;5240603;28;20229;-52
2023/12/18 12:21:29;;;;;;;20.27;10.40;;;9.20;99.90;;;;;;5222398;28;20655;-52
2023/12/18 12:24:00;;;;;;;29.97;11.00;;;9.20;99.90;;;;;;5219991;28;20479;-49
2023/12/18 12:26:31;;;;;;;16.80;9.13;;;9.20;99.90;;;;;;5222498;28;20654;-51
2023/12/18 12:29:02;;;;;;;18.93;9.40;;;9.10;99.90;;;;;;5222221;28;20539;-51
2023/12/18 12:31:32;;;;;;;18.33;10.00;;;9.00;99.90;;;;;;5216056;28;20190;-50
2023/12/18 12:34:03;;;;;;;20.43;10.50;;;8.90;99.90;;;;;;5223465;28;20510;-47
2023/12/18 12:36:34;;;;;;;17.13;9.87;;;8.90;99.90;;;;;;5220815;28;20210;-48
2023/12/18 12:39:05;;;;;;;19.43;9.17;;;8.90;99.90;;;;;;5222119;28;20211;-48
2023/12/18 12:41:36;;;;;;;14.53;9.30;;;8.80;99.90;;;;;;5222960;28;20444;-48
2023/12/18 12:44:07;;;;;;;13.80;9.63;;;8.70;99.90;;;;;;5222772;28;20607;-48
2023/12/18 12:46:38;;;;;;;14.43;8.90;;;8.70;99.90;;;;;;5222732;28;20437;-48
2023/12/18 12:49:10;;;;;;;12.70;9.20;;;8.60;99.90;;;;;;5221342;28;20950;-47
2023/12/18 12:51:41;;;;;;;15.90;9.20;;;8.60;99.90;;;;;;5219599;28;20602;-49
2023/12/18 12:54:13;;;;;;;16.37;9.60;;;8.60;99.90;;;;;;5223220;28;20440;-49
2023/12/18 12:56:45;;;;;;;12.60;9.53;;;8.70;99.90;;;;;;5221298;28;20226;-48
2023/12/18 12:59:16;;;;;;;21.00;9.83;;;8.60;99.90;;;;;;5222492;28;21051;-47
2023/12/18 13:01:48;;;;;;;16.43;9.13;;;8.60;99.90;;;;;;5219197;28;20438;-47
2023/12/18 13:04:19;;;;;;;15.13;9.60;;;8.60;99.90;;;;;;5219904;28;20183;-47
2023/12/18 13:06:50;;;;;;;21.03;10.90;;;8.70;99.90;;;;;;5223088;28;20862;-49
2023/12/18 13:09:20;;;;;;;24.03;11.13;;;8.60;99.90;;;;;;5203657;28;20217;-48